createdAt,value
2017-06-02T00:02:16.700Z,79.80
2017-06-02T00:04:44.564Z,79.50
2017-06-02T00:07:12.430Z,79.20
2017-06-02T00:09:40.334Z,79.20
2017-06-02T00:12:08.205Z,79.50
2017-06-02T00:14:36.077Z,79.40
2017-06-02T00:17:04.234Z,79.40
2017-06-02T00:19:32.102Z,79.60
2017-06-02T00:21:59.989Z,79.40
2017-06-02T00:24:27.885Z,79.40
2017-06-02T00:26:55.757Z,79.20
2017-06-02T00:29:23.649Z,79.20
2017-06-02T00:31:51.640Z,79.60
2017-06-02T00:34:19.118Z,79.60
2017-06-02T00:36:46.990Z,80.10
2017-06-02T00:39:15.062Z,79.60
2017-06-02T00:41:42.928Z,79.50
2017-06-02T00:44:10.793Z,80.00
2017-06-02T00:46:38.714Z,79.90
2017-06-02T00:49:06.190Z,79.90
2017-06-02T00:51:34.080Z,80.00
2017-06-02T00:54:02.082Z,80.10
2017-06-02T00:56:29.558Z,80.00
2017-06-02T00:58:57.440Z,79.80
2017-06-02T01:01:24.953Z,79.80
2017-06-02T01:03:52.816Z,80.20
2017-06-02T01:06:20.285Z,80.10
2017-06-02T01:08:48.198Z,80.20
2017-06-02T01:11:16.082Z,80.30
2017-06-02T01:13:43.949Z,80.00
2017-06-02T01:16:11.832Z,79.90
2017-06-02T01:18:39.697Z,79.70
2017-06-02T01:21:07.565Z,80.00
2017-06-02T01:23:35.805Z,79.70
2017-06-02T01:26:03.673Z,80.10
2017-06-02T01:28:31.552Z,80.30
2017-06-02T01:30:59.462Z,80.10
2017-06-02T01:33:27.346Z,79.90
2017-06-02T01:35:55.214Z,79.80
2017-06-02T01:38:23.106Z,80.10
2017-06-02T01:40:50.993Z,79.90
2017-06-02T01:43:18.871Z,79.50
2017-06-02T01:45:46.795Z,79.50
2017-06-02T01:48:14.674Z,79.70
2017-06-02T01:50:42.557Z,79.30
2017-06-02T01:53:10.474Z,79.50
2017-06-02T01:55:38.348Z,79.70
2017-06-02T01:58:06.222Z,79.90
2017-06-02T02:00:34.118Z,79.80
2017-06-02T02:03:02.001Z,79.90
2017-06-02T02:05:29.870Z,79.80
2017-06-02T02:07:57.765Z,79.80
2017-06-02T02:10:25.641Z,80.10
2017-06-02T02:12:53.505Z,80.20
2017-06-02T02:15:21.400Z,80.10
2017-06-02T02:17:48.873Z,80.10
2017-06-02T02:20:16.708Z,80.00
2017-06-02T02:22:44.188Z,80.00
2017-06-02T02:25:12.292Z,79.80
2017-06-02T02:27:40.132Z,79.10
2017-06-02T02:30:08.094Z,79.30
2017-06-02T02:32:35.544Z,79.30
2017-06-02T02:35:03.380Z,79.70
2017-06-02T02:37:31.344Z,80.30
2017-06-02T02:39:59.194Z,80.10
2017-06-02T02:42:27.027Z,79.80
2017-06-02T02:44:54.889Z,79.70
2017-06-02T02:47:22.736Z,79.90
2017-06-02T02:49:50.587Z,80.80
2017-06-02T02:52:18.160Z,80.80
2017-06-02T02:54:46.004Z,82.70
2017-06-02T02:57:13.447Z,82.70
2017-06-02T02:59:41.493Z,83.90
2017-06-02T03:02:08.941Z,83.90
2017-06-02T03:04:36.788Z,83.70
2017-06-02T03:07:05.267Z,85.10
2017-06-02T03:09:33.108Z,86.60
2017-06-02T03:12:00.947Z,86.60
2017-06-02T03:14:28.867Z,86.60
2017-06-02T03:16:56.319Z,88.40
2017-06-02T03:19:24.168Z,89.00
2017-06-02T03:21:52.253Z,88.60
2017-06-02T03:24:20.100Z,88.20
2017-06-02T03:26:47.952Z,87.90
2017-06-02T03:29:15.515Z,87.90
2017-06-02T03:31:43.359Z,88.60
2017-06-02T03:34:11.212Z,88.50
2017-06-02T03:36:39.032Z,88.50
2017-06-02T03:39:06.879Z,87.70
2017-06-02T03:41:34.730Z,86.40
2017-06-02T03:44:02.205Z,86.40
2017-06-02T03:46:30.052Z,81.80
2017-06-02T03:48:57.896Z,81.90
2017-06-02T03:51:25.372Z,81.90
2017-06-02T03:53:53.215Z,82.60
2017-06-02T03:56:21.063Z,83.30
2017-06-02T03:58:48.545Z,83.30
2017-06-02T04:01:16.383Z,82.80
2017-06-02T04:03:43.840Z,82.80
2017-06-02T04:06:11.709Z,83.30
2017-06-02T04:08:39.551Z,83.00
2017-06-02T04:11:07.391Z,83.10
2017-06-02T04:13:35.261Z,82.90
2017-06-02T04:16:03.108Z,82.80
2017-06-02T04:18:30.959Z,82.70
2017-06-02T04:20:58.827Z,82.90
2017-06-02T04:23:26.671Z,82.70
2017-06-02T04:25:54.520Z,82.90
2017-06-02T04:28:22.399Z,82.90
2017-06-02T04:30:50.242Z,82.80
2017-06-02T04:33:18.085Z,82.50
2017-06-02T04:35:45.559Z,82.50
2017-06-02T04:38:13.404Z,83.00
2017-06-02T04:40:41.244Z,82.60
2017-06-02T04:43:09.108Z,82.40
2017-06-02T04:45:36.960Z,82.60
2017-06-02T04:48:04.800Z,82.80
2017-06-02T04:50:32.672Z,82.80
2017-06-02T04:53:00.521Z,82.70
2017-06-02T04:55:27.965Z,82.70
2017-06-02T04:57:55.424Z,82.50
2017-06-02T05:00:23.272Z,82.70
2017-06-02T05:02:51.123Z,82.60
2017-06-02T05:05:19.083Z,82.40
2017-06-02T05:07:46.928Z,81.80
2017-06-02T05:10:14.781Z,81.60
2017-06-02T05:12:42.640Z,81.90
2017-06-02T05:15:10.321Z,81.90
2017-06-02T05:17:37.752Z,81.90
2017-06-02T05:20:05.632Z,80.70
2017-06-02T05:22:33.482Z,80.60
2017-06-02T05:25:01.360Z,80.60
2017-06-02T05:27:28.920Z,80.60
2017-06-02T05:29:56.763Z,80.40
2017-06-02T05:32:24.609Z,79.20
2017-06-02T05:34:52.755Z,79.30
2017-06-02T05:37:20.589Z,79.40
2017-06-02T05:39:48.441Z,79.40
2017-06-02T05:42:16.291Z,79.50
2017-06-02T05:44:44.144Z,79.20
2017-06-02T05:47:11.993Z,78.10
2017-06-02T05:49:39.871Z,78.30
2017-06-02T05:52:07.719Z,77.90
2017-06-02T05:54:35.564Z,77.30
2017-06-02T05:57:03.627Z,76.70
2017-06-02T05:59:31.472Z,73.10
2017-06-02T06:01:59.324Z,71.90
2017-06-02T06:04:27.202Z,71.20
2017-06-02T06:06:55.040Z,71.10
2017-06-02T06:09:22.886Z,71.20
2017-06-02T06:11:50.752Z,70.40
2017-06-02T06:14:18.610Z,69.40
2017-06-02T06:16:46.457Z,69.00
2017-06-02T06:19:14.612Z,69.60
2017-06-02T06:21:42.472Z,68.30
2017-06-02T06:24:09.924Z,68.30
2017-06-02T06:26:37.799Z,66.50
2017-06-02T06:29:05.840Z,65.40
2017-06-02T06:31:33.680Z,66.00
2017-06-02T06:34:01.559Z,65.70
2017-06-02T06:36:29.399Z,66.40
2017-06-02T06:38:57.247Z,66.90
2017-06-02T06:41:25.272Z,65.40
2017-06-02T06:43:53.116Z,67.00
2017-06-02T06:46:20.560Z,67.00
2017-06-02T06:48:48.374Z,66.60
2017-06-02T06:51:16.469Z,65.60
2017-06-02T06:53:44.411Z,60.50
2017-06-02T06:56:12.316Z,62.90
2017-06-02T06:58:40.531Z,64.80
2017-06-02T07:01:08.570Z,65.10
2017-06-02T07:03:36.416Z,63.70
2017-06-02T07:06:03.859Z,63.70
2017-06-02T07:08:31.707Z,62.50
2017-06-02T07:10:59.584Z,63.30
2017-06-02T07:13:27.445Z,62.60
2017-06-02T07:15:55.300Z,64.40
2017-06-02T07:18:23.260Z,60.20
2017-06-02T07:20:51.104Z,60.50
2017-06-02T07:23:18.945Z,61.10
2017-06-02T07:25:47.063Z,60.50
2017-06-02T07:28:16.288Z,57.40
2017-06-02T07:30:44.121Z,56.30
2017-06-02T07:33:12.196Z,56.40
2017-06-02T07:35:40.050Z,54.70
2017-06-02T07:38:07.903Z,50.60
2017-06-02T07:40:35.769Z,52.30
2017-06-02T07:43:03.220Z,52.30
2017-06-02T07:45:31.067Z,46.90
2017-06-02T07:47:58.958Z,53.30
2017-06-02T07:50:26.815Z,55.40
2017-06-02T07:52:54.716Z,54.00
2017-06-02T07:55:22.835Z,51.90
2017-06-02T07:57:50.678Z,50.20
2017-06-02T08:00:18.530Z,45.40
2017-06-02T08:02:46.404Z,44.40
2017-06-02T08:05:14.258Z,45.80
2017-06-02T08:07:42.091Z,48.00
2017-06-02T08:10:09.951Z,45.20
2017-06-02T08:12:37.790Z,48.20
2017-06-02T08:15:05.628Z,48.20
2017-06-02T08:17:33.506Z,50.40
2017-06-02T08:20:01.372Z,49.30
2017-06-02T08:22:28.822Z,49.30
2017-06-02T08:24:56.726Z,49.50
2017-06-02T08:27:24.167Z,49.50
2017-06-02T08:29:52.013Z,47.70
2017-06-02T08:32:19.907Z,48.40
2017-06-02T08:34:47.763Z,48.00
2017-06-02T08:37:15.599Z,47.10
2017-06-02T08:39:43.722Z,47.20
2017-06-02T08:42:11.577Z,46.70
2017-06-02T08:44:39.042Z,46.70
2017-06-02T08:47:07.207Z,46.90
2017-06-02T08:49:35.052Z,47.10
2017-06-02T08:52:02.503Z,47.10
2017-06-02T08:54:30.315Z,44.40
2017-06-02T08:56:58.170Z,47.60
2017-06-02T08:59:25.615Z,47.60
2017-06-02T09:01:53.473Z,47.90
2017-06-02T09:04:21.324Z,45.10
2017-06-02T09:06:49.187Z,45.90
2017-06-02T09:09:17.061Z,45.70
2017-06-02T09:11:44.918Z,44.90
2017-06-02T09:14:12.786Z,42.50
2017-06-02T09:16:40.883Z,41.00
2017-06-02T09:19:08.739Z,42.90
2017-06-02T09:21:36.753Z,41.50
2017-06-02T09:24:04.813Z,39.40
2017-06-02T09:26:32.666Z,40.10
2017-06-02T09:29:00.516Z,41.40
2017-06-02T09:31:28.672Z,42.40
2017-06-02T09:33:56.541Z,42.40
2017-06-02T09:36:24.399Z,37.00
2017-06-02T09:38:52.525Z,39.50
2017-06-02T09:41:19.916Z,39.50
2017-06-02T09:43:47.757Z,39.80
2017-06-02T09:46:15.873Z,38.10
2017-06-02T09:48:43.738Z,37.10
2017-06-02T09:51:11.180Z,37.10
2017-06-02T09:53:39.135Z,35.10
2017-06-02T09:56:06.982Z,35.10
2017-06-02T09:58:34.824Z,37.90
2017-06-02T10:01:02.307Z,37.90
2017-06-02T10:03:30.149Z,36.80
2017-06-02T10:05:57.991Z,35.20
2017-06-02T10:08:26.127Z,35.20
2017-06-02T10:10:53.572Z,35.20
2017-06-02T10:13:21.422Z,34.30
2017-06-02T10:15:49.120Z,34.30
2017-06-02T10:18:16.571Z,35.60
2017-06-02T10:20:44.426Z,35.20
2017-06-02T10:23:12.581Z,36.10
2017-06-02T10:25:40.443Z,37.90
2017-06-02T10:28:07.907Z,37.90
2017-06-02T10:30:35.790Z,35.70
2017-06-02T10:33:03.641Z,36.50
2017-06-02T10:35:31.107Z,36.50
2017-06-02T10:37:59.290Z,36.20
2017-06-02T10:40:27.127Z,36.20
2017-06-02T10:42:54.973Z,37.60
2017-06-02T10:45:22.854Z,37.50
2017-06-02T10:47:50.714Z,37.60
2017-06-02T10:50:18.556Z,36.40
2017-06-02T10:52:46.530Z,37.10
2017-06-02T10:55:14.382Z,35.30
2017-06-02T10:57:42.242Z,35.20
2017-06-02T11:00:10.065Z,35.20
2017-06-02T11:02:37.903Z,35.00
2017-06-02T11:05:05.748Z,34.70
2017-06-02T11:07:33.959Z,34.80
2017-06-02T11:10:01.823Z,32.70
2017-06-02T11:12:29.280Z,32.70
2017-06-02T11:14:57.138Z,33.70
2017-06-02T11:17:24.599Z,33.60
2017-06-02T11:19:52.440Z,34.00
2017-06-02T11:22:20.553Z,34.70
2017-06-02T11:24:48.002Z,34.70
2017-06-02T11:27:15.844Z,34.40
2017-06-02T11:29:43.725Z,35.60
2017-06-02T11:32:11.573Z,34.50
2017-06-02T11:34:39.411Z,32.30
2017-06-02T11:37:07.287Z,32.60
2017-06-02T11:39:35.127Z,33.60
2017-06-02T11:42:02.971Z,33.50
2017-06-02T11:44:32.005Z,34.10
2017-06-02T11:46:59.849Z,31.80
2017-06-02T11:49:27.689Z,31.90
2017-06-02T11:51:55.565Z,32.00
2017-06-02T11:54:23.009Z,32.00
2017-06-02T11:56:50.866Z,31.00
2017-06-02T11:59:19.012Z,32.10
2017-06-02T12:01:46.471Z,32.10
2017-06-02T12:04:14.311Z,31.30
2017-06-02T12:06:42.403Z,32.30
2017-06-02T12:09:10.270Z,30.60
2017-06-02T12:11:38.135Z,30.60
2017-06-02T12:14:06.012Z,30.70
2017-06-02T12:16:33.857Z,31.00
2017-06-02T12:19:01.696Z,30.10
2017-06-02T12:21:29.570Z,30.00
2017-06-02T12:23:57.032Z,30.00
2017-06-02T12:26:24.902Z,31.80
2017-06-02T12:28:52.770Z,30.80
2017-06-02T12:31:20.609Z,31.40
2017-06-02T12:33:48.055Z,31.40
2017-06-02T12:36:15.948Z,30.70
2017-06-02T12:38:43.811Z,31.00
2017-06-02T12:41:11.670Z,30.40
2017-06-02T12:43:40.272Z,28.20
2017-06-02T12:46:07.728Z,28.20
2017-06-02T12:48:35.598Z,29.40
2017-06-02T12:51:04.320Z,29.90
2017-06-02T12:53:32.159Z,29.70
2017-06-02T12:56:00.011Z,29.00
2017-06-02T12:58:27.887Z,26.30
2017-06-02T13:00:55.736Z,26.40
2017-06-02T13:03:23.598Z,26.00
2017-06-02T13:05:51.667Z,27.80
2017-06-02T13:08:20.019Z,29.50
2017-06-02T13:10:47.866Z,27.70
2017-06-02T13:13:16.085Z,27.20
2017-06-02T13:15:43.932Z,26.60
2017-06-02T13:18:11.385Z,26.60
2017-06-02T13:20:39.471Z,28.30
2017-06-02T13:23:07.324Z,26.60
2017-06-02T13:25:35.186Z,28.30
2017-06-02T13:28:03.390Z,28.50
2017-06-02T13:30:31.254Z,28.50
2017-06-02T13:32:59.115Z,26.30
2017-06-02T13:35:27.279Z,26.70
2017-06-02T13:37:55.119Z,27.10
2017-06-02T13:40:22.979Z,29.30
2017-06-02T13:42:51.186Z,29.10
2017-06-02T13:45:18.658Z,29.10
2017-06-02T13:47:46.491Z,29.00
2017-06-02T13:50:14.683Z,28.70
2017-06-02T13:52:42.148Z,28.70
2017-06-02T13:55:09.997Z,27.50
2017-06-02T13:57:37.908Z,28.20
2017-06-02T14:00:05.751Z,28.10
2017-06-02T14:02:33.599Z,28.20
2017-06-02T14:05:01.075Z,28.20
2017-06-02T14:07:28.945Z,26.40
2017-06-02T14:09:56.392Z,26.40
2017-06-02T14:12:23.894Z,28.50
2017-06-02T14:14:51.758Z,28.90
2017-06-02T14:17:19.616Z,29.80
2017-06-02T14:19:47.819Z,28.80
2017-06-02T14:22:15.668Z,29.10
2017-06-02T14:24:43.137Z,29.10
2017-06-02T14:27:11.364Z,30.90
2017-06-02T14:29:39.206Z,30.10
2017-06-02T14:32:07.075Z,31.80
2017-06-02T14:34:34.567Z,31.80
2017-06-02T14:37:02.408Z,33.30
2017-06-02T14:39:30.268Z,33.60
2017-06-02T14:41:58.410Z,33.30
2017-06-02T14:44:25.856Z,33.30
2017-06-02T14:46:53.307Z,34.20
2017-06-02T14:49:21.169Z,33.90
2017-06-02T14:51:49.022Z,32.90
2017-06-02T14:54:16.873Z,33.30
2017-06-02T14:56:44.760Z,34.80
2017-06-02T14:59:12.625Z,33.70
2017-06-02T15:01:40.486Z,34.80
2017-06-02T15:04:08.369Z,34.10
2017-06-02T15:06:35.816Z,34.10
2017-06-02T15:09:03.660Z,34.90
2017-06-02T15:11:31.522Z,34.20
2017-06-02T15:13:59.385Z,34.10
2017-06-02T15:16:27.235Z,34.80
2017-06-02T15:18:54.731Z,34.80
2017-06-02T15:21:22.590Z,37.00
2017-06-02T15:23:50.734Z,35.40
2017-06-02T15:26:18.936Z,34.60
2017-06-02T15:28:46.389Z,34.60
2017-06-02T15:31:14.248Z,34.20
2017-06-02T15:33:42.120Z,35.50
2017-06-02T15:36:09.589Z,35.50
2017-06-02T15:38:37.451Z,35.70
2017-06-02T15:41:05.422Z,35.30
2017-06-02T15:43:33.286Z,35.70
2017-06-02T15:46:00.750Z,35.70
2017-06-02T15:48:28.620Z,37.20
2017-06-02T15:50:56.090Z,37.20
2017-06-02T15:53:23.935Z,35.10
2017-06-02T15:55:51.797Z,35.40
2017-06-02T15:58:19.659Z,35.10
2017-06-02T16:00:47.510Z,35.20
2017-06-02T16:03:15.372Z,35.60
2017-06-02T16:05:43.219Z,35.30
2017-06-02T16:08:11.065Z,35.80
2017-06-02T16:10:39.657Z,35.30
2017-06-02T16:13:07.512Z,36.70
2017-06-02T16:15:35.357Z,36.30
2017-06-02T16:18:03.769Z,36.60
2017-06-02T16:20:31.618Z,37.00
2017-06-02T16:22:59.474Z,36.20
2017-06-02T16:25:27.463Z,36.70
2017-06-02T16:27:55.316Z,37.00
2017-06-02T16:30:23.161Z,37.90
2017-06-02T16:32:50.657Z,37.90
2017-06-02T16:35:18.105Z,36.80
2017-06-02T16:37:45.957Z,36.30
2017-06-02T16:40:14.155Z,37.60
2017-06-02T16:42:42.013Z,37.30
2017-06-02T16:45:09.864Z,37.60
2017-06-02T16:47:38.052Z,37.60
2017-06-02T16:50:05.896Z,37.60
2017-06-02T16:52:33.767Z,37.00
2017-06-02T16:55:01.673Z,37.20
2017-06-02T16:57:29.526Z,37.10
2017-06-02T16:59:57.370Z,37.70
2017-06-02T17:02:25.256Z,37.60
2017-06-02T17:04:53.119Z,37.90
2017-06-02T17:07:20.580Z,37.90
2017-06-02T17:09:48.761Z,38.20
2017-06-02T17:12:16.611Z,35.50
2017-06-02T17:14:44.453Z,35.70
2017-06-02T17:17:12.328Z,36.30
2017-06-02T17:19:40.172Z,36.60
2017-06-02T17:22:07.636Z,36.60
2017-06-02T17:24:36.063Z,37.10
2017-06-02T17:27:03.522Z,37.10
2017-06-02T17:29:31.838Z,35.60
2017-06-02T17:32:00.032Z,37.00
2017-06-02T17:34:27.822Z,37.00
2017-06-02T17:36:55.944Z,36.80
2017-06-02T17:39:23.986Z,37.40
2017-06-02T17:41:51.832Z,37.60
2017-06-02T17:44:19.721Z,37.30
2017-06-02T17:46:47.619Z,36.20
2017-06-02T17:49:15.475Z,36.80
2017-06-02T17:51:43.349Z,36.70
2017-06-02T17:54:11.226Z,37.90
2017-06-02T17:56:38.677Z,37.90
2017-06-02T17:59:06.528Z,36.60
2017-06-02T18:01:34.412Z,36.00
2017-06-02T18:04:02.258Z,37.00
2017-06-02T18:06:30.111Z,36.40
2017-06-02T18:08:58.086Z,36.30
2017-06-02T18:11:26.039Z,36.60
2017-06-02T18:13:53.493Z,36.70
2017-06-02T18:16:21.064Z,37.60
2017-06-02T18:18:48.915Z,38.20
2017-06-02T18:21:16.776Z,37.90
2017-06-02T18:23:45.211Z,37.90
2017-06-02T18:26:12.705Z,38.70
2017-06-02T18:28:40.557Z,38.80
2017-06-02T18:31:08.593Z,39.60
2017-06-02T18:33:36.649Z,39.80
2017-06-02T18:36:04.522Z,40.30
2017-06-02T18:38:32.111Z,40.30
2017-06-02T18:40:59.991Z,41.10
2017-06-02T18:43:27.868Z,41.60
2017-06-02T18:45:55.997Z,41.90
2017-06-02T18:48:23.543Z,41.90
2017-06-02T18:50:51.474Z,42.70
2017-06-02T18:53:19.579Z,43.00
2017-06-02T18:55:48.066Z,43.30
2017-06-02T18:58:16.290Z,43.70
2017-06-02T19:00:44.190Z,43.70
2017-06-02T19:03:12.522Z,44.40
2017-06-02T19:05:41.041Z,44.80
2017-06-02T19:08:10.346Z,45.10
2017-06-02T19:10:39.068Z,45.10
2017-06-02T19:13:07.819Z,45.00
2017-06-02T19:15:36.781Z,45.00
2017-06-02T19:18:05.287Z,45.30
2017-06-02T19:20:34.251Z,45.60
2017-06-02T19:23:03.583Z,45.70
2017-06-02T19:25:32.799Z,46.40
2017-06-02T19:28:01.634Z,45.70
2017-06-02T19:30:30.504Z,45.80
2017-06-02T19:32:59.461Z,45.30
2017-06-02T19:35:28.374Z,45.60
2017-06-02T19:37:58.198Z,45.30
2017-06-02T19:40:28.532Z,45.50
2017-06-02T19:42:57.481Z,46.40
2017-06-02T19:45:27.679Z,47.20
2017-06-02T19:47:57.586Z,47.80
2017-06-02T19:50:26.628Z,49.00
2017-06-02T19:52:55.896Z,49.20
2017-06-02T19:55:24.768Z,50.40
2017-06-02T19:57:55.194Z,51.40
2017-06-02T20:00:24.288Z,51.40
2017-06-02T20:02:56.236Z,54.20
2017-06-02T20:05:25.758Z,55.20
2017-06-02T20:07:55.195Z,56.50
2017-06-02T20:10:24.400Z,58.10
2017-06-02T20:12:53.262Z,59.00
2017-06-02T20:15:22.416Z,59.00
2017-06-02T20:17:52.202Z,60.30
2017-06-02T20:20:21.537Z,62.00
2017-06-02T20:22:50.386Z,62.80
2017-06-02T20:25:19.516Z,63.50
2017-06-02T20:27:47.917Z,63.50
2017-06-02T20:30:16.775Z,64.50
2017-06-02T20:32:45.971Z,65.50
2017-06-02T20:35:15.255Z,66.10
2017-06-02T20:37:44.271Z,66.50
2017-06-02T20:40:13.170Z,67.10
2017-06-02T20:42:42.732Z,67.40
2017-06-02T20:45:11.533Z,67.20
2017-06-02T20:47:55.613Z,68.50
2017-06-02T20:50:26.022Z,68.60
2017-06-02T20:52:55.793Z,69.50
2017-06-02T20:55:25.562Z,69.50
2017-06-02T20:57:54.416Z,70.10
2017-06-02T21:00:22.757Z,70.10
2017-06-02T21:02:52.164Z,70.90
2017-06-02T21:05:20.317Z,71.10
2017-06-02T21:07:50.731Z,71.50
2017-06-02T21:10:19.105Z,71.50
2017-06-02T21:12:47.286Z,71.60
2017-06-02T21:15:15.274Z,71.60
2017-06-02T21:17:43.509Z,72.20
2017-06-02T21:20:12.608Z,72.30
2017-06-02T21:22:40.984Z,72.10
2017-06-02T21:25:09.611Z,72.50
2017-06-02T21:27:37.847Z,72.80
2017-06-02T21:30:05.748Z,73.30
2017-06-02T21:32:33.673Z,73.50
2017-06-02T21:35:01.542Z,73.40
2017-06-02T21:37:29.388Z,73.60
2017-06-02T21:39:57.260Z,74.20
2017-06-02T21:42:25.751Z,74.20
2017-06-02T21:44:53.608Z,74.90
2017-06-02T21:47:21.749Z,75.00
2017-06-02T21:49:49.992Z,74.60
2017-06-02T21:52:17.446Z,74.60
2017-06-02T21:54:45.773Z,74.20
2017-06-02T21:57:13.631Z,74.70
2017-06-02T21:59:41.077Z,74.70
2017-06-02T22:02:08.949Z,75.80
2017-06-02T22:04:36.815Z,75.80
2017-06-02T22:07:05.575Z,75.10
2017-06-02T22:09:33.444Z,75.00
2017-06-02T22:12:00.895Z,75.10
2017-06-02T22:14:29.247Z,76.20
2017-06-02T22:16:57.130Z,75.70
2017-06-02T22:19:24.990Z,76.20
2017-06-02T22:21:52.857Z,76.70
2017-06-02T22:24:20.731Z,76.70
2017-06-02T22:26:48.840Z,77.00
2017-06-02T22:29:16.683Z,77.10
2017-06-02T22:31:44.855Z,77.30
2017-06-02T22:34:13.325Z,76.80
2017-06-02T22:36:41.182Z,77.20
